Stations météo

réclame
Mon MeteoGroup
Gravesend, Grande-Bretagne (3784): Température de l'air & dewpoint: 09.08.2018 14:00:00 - 15.08.2018 14:00:00 (BST)Gravesend, Grande-Bretagne (3784): Vitesse du vent & gusts: 09.08.2018 14:00:00 - 15.08.2018 14:00:00 (BST)Gravesend, Grande-Bretagne (3784): Direction du vent: 09.08.2018 14:00:00 - 15.08.2018 14:00:00 (BST)Gravesend, Grande-Bretagne (3784): reduced air pressure: 09.08.2018 14:00:00 - 15.08.2018 14:00:00 (BST)
Date & Time tt [°C] td [°C] ff [km/h] ff [knt] fx [km/h] fx [knt] dd ppp [hPa]
15.08.2018 14:00:00 - - - - - - - -
15.08.2018 13:00:00 21,6 - 16 9 - - SSW 1017,9
15.08.2018 12:00:00 - - 16 9 - - SW -
15.08.2018 11:00:00 21,7 15,1 21 11 - - WSW 1017,9
15.08.2018 10:00:00 21,0 15,1 15 8 - - SW 1018,0
15.08.2018 09:00:00 18,6 14,0 15 8 - - WSW 1018,4
15.08.2018 08:00:00 17,9 14,2 16 9 - - WSW 1018,1
15.08.2018 07:00:00 17,6 14,0 13 7 - - WSW 1018,0
15.08.2018 06:00:00 16,8 13,6 11 6 - - SW 1017,6
15.08.2018 05:00:00 16,2 13,8 13 7 - - WSW 1017,6
15.08.2018 04:00:00 16,4 13,6 15 8 - - WSW 1017,7
15.08.2018 03:00:00 16,6 13,1 16 9 - - WSW 1017,7
15.08.2018 02:00:00 17,1 12,9 15 8 - - SW 1017,6
15.08.2018 01:00:00 17,9 13,5 16 9 - - WSW 1017,8
15.08.2018 00:00:00 18,8 13,8 18 10 - - WSW 1017,8
14.08.2018 23:00:00 19,6 13,5 16 9 - - W 1017,4
14.08.2018 22:00:00 21,0 15,0 18 10 - - WSW 1017,2
14.08.2018 21:00:00 21,6 14,6 16 9 - - W 1016,7
14.08.2018 20:00:00 23,1 14,7 13 7 - - W 1016,1
14.08.2018 19:00:00 23,6 15,1 13 7 - - SW 1015,6
14.08.2018 18:00:00 23,7 14,5 21 11 - - WSW 1015,9
14.08.2018 17:00:00 24,1 13,3 16 9 - - WSW 1016,0
14.08.2018 16:00:00 24,6 12,8 18 10 - - WSW 1016,2
14.08.2018 15:00:00 24,0 12,9 13 7 - - W 1016,5
14.08.2018 14:00:00 23,2 12,8 16 9 - - W 1016,6
14.08.2018 13:00:00 21,0 13,1 15 8 - - WNW 1016,5
14.08.2018 12:00:00 21,2 14,2 13 7 - - WSW 1016,4
14.08.2018 11:00:00 19,2 13,0 13 7 - - WSW 1016,3
14.08.2018 10:00:00 18,2 13,4 15 8 - - WSW 1016,1
14.08.2018 09:00:00 17,7 12,9 15 8 - - WSW 1015,7
14.08.2018 08:00:00 17,2 13,0 13 7 - - WSW 1015,4
14.08.2018 07:00:00 16,2 12,8 13 7 - - WSW 1015,0
14.08.2018 06:00:00 16,3 12,0 16 9 - - W 1014,3
14.08.2018 05:00:00 16,4 12,2 16 9 - - W 1013,4
14.08.2018 04:00:00 16,6 12,4 16 9 - - W 1013,3
14.08.2018 03:00:00 17,1 12,4 16 9 - - W 1012,9
14.08.2018 02:00:00 17,6 12,8 18 10 - - W 1012,5
14.08.2018 01:00:00 17,9 13,4 13 7 - - W 1011,9
14.08.2018 00:00:00 18,6 14,1 13 7 - - WNW 1011,3
13.08.2018 23:00:00 19,1 14,2 13 7 - - WNW 1010,8
13.08.2018 22:00:00 20,2 14,7 13 7 - - NW 1009,9
13.08.2018 21:00:00 22,4 14,2 18 10 - - W 1008,9
13.08.2018 20:00:00 22,5 14,2 15 8 - - W 1008,1
13.08.2018 19:00:00 22,5 14,2 13 7 - - W 1007,6
13.08.2018 18:00:00 23,8 14,0 22 12 - - W 1007,2
13.08.2018 17:00:00 22,6 14,9 21 11 - - W 1007,1
13.08.2018 16:00:00 21,3 15,1 16 9 - - W 1006,9
13.08.2018 15:00:00 20,4 14,7 28 15 - - W 1006,9
13.08.2018 14:00:00 21,8 15,5 18 10 - - W 1006,7
13.08.2018 13:00:00 20,1 14,7 18 10 - - W 1006,6
13.08.2018 12:00:00 20,6 14,8 15 8 - - W 1006,3
13.08.2018 11:00:00 19,3 15,5 13 7 - - WSW 1006,2
13.08.2018 10:00:00 18,3 15,3 15 8 - - W 1005,9
13.08.2018 09:00:00 17,5 15,4 13 7 - - WSW 1005,8
13.08.2018 08:00:00 17,1 15,7 13 7 - - WSW 1005,6
13.08.2018 07:00:00 16,5 16,0 9 5 - - WSW 1005,4
13.08.2018 06:00:00 15,0 14,4 8 4 - - SSW 1005,0
13.08.2018 05:00:00 15,8 15,4 8 4 - - SW 1005,0
13.08.2018 04:00:00 15,8 15,4 4 2 - - SSE 1005,2
13.08.2018 03:00:00 16,0 15,5 2 1 - - S 1005,3
13.08.2018 02:00:00 16,0 15,5 0 0 - - N 1005,9
13.08.2018 01:00:00 16,1 15,5 2 1 - - S 1006,4
13.08.2018 00:00:00 16,2 15,6 5 3 - - SSE 1006,8
12.08.2018 23:00:00 16,1 15,3 8 4 - - SSE 1007,1
12.08.2018 22:00:00 16,5 14,4 4 2 - - SSE 1007,4
12.08.2018 21:00:00 18,1 12,9 5 3 - - SSW 1007,5
12.08.2018 20:00:00 19,3 11,9 8 4 - - SSW 1007,6
12.08.2018 19:00:00 19,8 12,4 16 9 - - SSW 1008,0
12.08.2018 18:00:00 20,3 13,8 9 5 - - S 1008,6
12.08.2018 17:00:00 20,9 12,8 13 7 - - SSW 1009,0
12.08.2018 16:00:00 21,3 11,5 13 7 - - SSW 1009,3
12.08.2018 15:00:00 21,6 12,4 21 11 - - SSW 1010,0
12.08.2018 14:00:00 21,5 12,9 16 9 - - SSW 1010,2
12.08.2018 13:00:00 21,2 11,7 21 11 - - SSW 1010,5
12.08.2018 12:00:00 21,7 12,8 21 11 - - S 1010,8
12.08.2018 11:00:00 21,9 13,9 13 7 - - S 1011,2
12.08.2018 10:00:00 20,5 14,0 18 10 - - SSW 1011,6
12.08.2018 09:00:00 19,4 16,2 8 4 - - SSW 1012,0
12.08.2018 08:00:00 17,8 16,1 2 1 - - SSW 1012,4
12.08.2018 07:00:00 17,7 15,1 9 5 - - SSW 1012,7
12.08.2018 06:00:00 17,0 15,2 9 5 - - SE 1012,5
12.08.2018 05:00:00 16,9 15,0 9 5 - - SSE 1013,4
12.08.2018 04:00:00 16,6 14,5 8 4 - - SSE 1014,5
12.08.2018 03:00:00 16,5 14,4 9 5 - - SSE 1015,3
12.08.2018 02:00:00 16,8 14,6 11 6 - - SSE 1015,9
12.08.2018 01:00:00 16,8 15,0 9 5 - - SSE 1016,7
12.08.2018 00:00:00 16,6 14,7 8 4 - - SE 1017,5
11.08.2018 23:00:00 17,0 15,2 11 6 - - SE 1018,2
11.08.2018 22:00:00 16,6 15,1 8 4 - - SSE 1018,9
11.08.2018 21:00:00 16,5 14,9 9 5 - - S 1019,4
11.08.2018 20:00:00 18,3 14,0 11 6 - - SSW 1019,5
11.08.2018 19:00:00 19,1 13,7 13 7 - - SSW 1020,0
11.08.2018 18:00:00 19,3 13,2 15 8 - - SSW 1020,6
11.08.2018 17:00:00 20,4 11,9 16 9 - - SSW 1020,7
11.08.2018 16:00:00 21,2 10,0 16 9 - - SSW 1021,1
11.08.2018 15:00:00 21,6 8,8 13 7 - - S 1021,6
11.08.2018 14:00:00 22,5 8,2 9 5 - - S 1021,9
11.08.2018 13:00:00 21,2 8,0 11 6 - - SSW 1022,5
11.08.2018 12:00:00 20,0 8,6 11 6 - - SW 1022,9
11.08.2018 11:00:00 19,1 8,8 8 4 - - WSW 1023,1
11.08.2018 10:00:00 17,1 9,6 5 3 - - W 1023,4
11.08.2018 09:00:00 15,2 10,0 5 3 - - WSW 1023,5
11.08.2018 08:00:00 13,4 9,4 8 4 - - WSW 1023,4
11.08.2018 07:00:00 11,9 9,2 9 5 - - SW 1023,2
11.08.2018 06:00:00 9,9 8,3 9 5 - - SW 1022,7
11.08.2018 05:00:00 11,8 9,2 11 6 - - WSW 1022,3
11.08.2018 04:00:00 12,7 9,5 11 6 - - WSW 1022,1
11.08.2018 03:00:00 13,0 9,3 13 7 - - WSW 1022,0
11.08.2018 02:00:00 13,6 8,9 13 7 - - WSW 1021,6
11.08.2018 01:00:00 13,1 10,0 11 6 - - WSW 1021,4
11.08.2018 00:00:00 14,4 8,8 9 5 - - W 1021,2
10.08.2018 23:00:00 15,1 9,3 16 9 - - W 1020,6
10.08.2018 22:00:00 12,4 10,6 4 2 - - S 1019,8
10.08.2018 21:00:00 14,6 10,0 9 5 - - W 1018,9
10.08.2018 20:00:00 15,0 11,3 5 3 - - W 1018,0
10.08.2018 19:00:00 17,5 13,1 18 10 - - SW 1016,9
10.08.2018 18:00:00 18,2 14,2 8 4 - - SW 1016,6
10.08.2018 17:00:00 17,2 13,3 11 6 - - WSW 1016,4
10.08.2018 16:00:00 16,1 14,6 15 8 - - SW 1016,7
10.08.2018 15:00:00 16,3 14,0 26 14 54 29 SW 1016,4
10.08.2018 14:00:00 15,5 14,1 21 11 - - S 1016,2
10.08.2018 13:00:00 16,3 13,7 22 12 - - S 1016,9
10.08.2018 12:00:00 16,7 12,6 18 10 - - SSW 1017,6
10.08.2018 11:00:00 18,2 10,9 21 11 - - SW 1018,0
10.08.2018 10:00:00 18,2 10,8 18 10 - - SW 1018,2
10.08.2018 09:00:00 16,3 10,9 18 10 - - SW 1018,5
10.08.2018 08:00:00 14,2 11,3 13 7 - - SSW 1018,3
10.08.2018 07:00:00 11,9 10,1 13 7 - - SSW 1018,2
10.08.2018 06:00:00 10,8 9,4 13 7 - - SSW 1017,9
10.08.2018 05:00:00 10,9 9,6 11 6 - - SSW 1017,7
10.08.2018 04:00:00 11,4 9,4 9 5 - - SSW 1017,7
10.08.2018 03:00:00 12,6 10,0 11 6 - - SW 1017,5
10.08.2018 02:00:00 12,8 9,9 15 8 - - SW 1017,2
10.08.2018 01:00:00 11,6 10,1 5 3 - - SW 1017,0
10.08.2018 00:00:00 12,1 11,2 9 5 - - SSW 1016,9
09.08.2018 23:00:00 13,5 11,1 5 3 - - WSW 1016,3
09.08.2018 22:00:00 13,5 12,3 13 7 - - SW 1016,1
09.08.2018 21:00:00 11,8 10,7 8 4 - - S 1015,0
09.08.2018 20:00:00 13,8 12,5 8 4 - - SSW 1014,6
09.08.2018 19:00:00 14,2 13,0 8 4 - - SSW 1014,1
09.08.2018 18:00:00 14,8 13,3 9 5 - - WNW 1013,5
09.08.2018 17:00:00 15,8 14,0 16 9 - - W 1013,2
09.08.2018 16:00:00 15,9 14,3 21 11 - - W 1012,6
09.08.2018 15:00:00 15,5 14,0 13 7 - - WNW 1012,2
09.08.2018 14:00:00 15,4 13,4 18 10 - - W 1012,0

tt = Température de l'air
td = dewpoint
ff = Vitesse du vent
fx = gusts
dd = Direction du vent
ppp = reduced air pressure

stations d'obs. à proximité